Pamlico — WX6900 — position and weather

sailwx.info

Track history (hours):
 
Tides and Currents Weather Stations Pressure Air Temp Water Temp Dewpoint Dewpoint Depression Visibility Wind Speed Wind Dir Waves Ship Positions

Pamlico

Owner: PCS Phosphate, AURORA, NC. More information available from US FCC via Universal Licensing System and Coast Guard Vessel Documentation Center.

Last reported at 2014-Dec-23 00:31 UTC. Time now 2014-Dec-23 03:43 UTC.
Position N 35°05' W 076°32'.

Length 30 m; draft 3 m.

MMSI: 367361220.

Date/timePositionNaut miles runAvg speedWind from/ knotsBaromVisibWave heightAir tempDewpointWater temp
2014-Dec-23 00:31N 35°05' W 076°32'8 8.4
2014-Dec-22 23:33N 35°01' W 076°40'6 6.4
2014-Dec-22 22:33N 34°54' W 076°40'6 5.8
2014-Dec-22 21:33N 34°48' W 076°41'5 5.2
2014-Dec-22 20:33N 34°43' W 076°42'0 0.0
2014-Dec-22 19:33N 34°43' W 076°42'0 0.0
2014-Dec-22 18:33N 34°43' W 076°42'0 0.0
2014-Dec-22 17:33N 34°43' W 076°42'0 0.1
2014-Dec-22 16:33N 34°43' W 076°42'0 0.1
2014-Dec-22 15:33N 34°43' W 076°42'2 2.2
2014-Dec-22 14:33N 34°45' W 076°40'5 5.0
2014-Dec-22 13:33N 34°50' W 076°41'4 4.2
2014-Dec-22 12:33N 34°54' W 076°40'7 5.7
2014-Dec-22 11:24N 35°01' W 076°40'8 7.5
2014-Dec-22 10:19N 35°05' W 076°32'2 0.1
2014-Dec-21 17:31N 35°04' W 076°33'8 8.0
2014-Dec-21 16:32N 34°59' W 076°41'6 6.0
2014-Dec-21 15:33N 34°54' W 076°41'7 7.2
2014-Dec-21 14:33N 34°46' W 076°41'3 3.2
2014-Dec-21 13:33N 34°43' W 076°42'2 2.1
2014-Dec-21 12:33N 34°45' W 076°40'5 5.0
2014-Dec-21 11:33N 34°50' W 076°41'5 4.8
2014-Dec-21 10:33N 34°55' W 076°40'6 5.7
2014-Dec-21 09:33N 35°01' W 076°40'7 7.3
2014-Dec-21 08:33N 35°04' W 076°33'10 1.0
2014-Dec-20 22:30N 34°58' W 076°42'5 5.8
2014-Dec-20 21:33N 34°53' W 076°41'6 6.3
2014-Dec-20 20:33N 34°47' W 076°41'3 3.4
2014-Dec-20 19:33N 34°43' W 076°42'6 5.6
2014-Dec-20 18:33N 34°49' W 076°41'6 6.3
2014-Dec-20 17:33N 34°55' W 076°40'12 5.9
2014-Dec-20 15:32N 35°05' W 076°32'9 0.6
2014-Dec-20 00:14N 34°60' W 076°41'5 6.9
2014-Dec-19 23:33N 34°55' W 076°40'7 7.0
2014-Dec-19 22:33N 34°48' W 076°41'5 5.0
2014-Dec-19 21:33N 34°43' W 076°42'0 0.0
2014-Dec-19 20:33N 34°43' W 076°42'5 5.4
2014-Dec-19 19:33N 34°49' W 076°41'6 6.2
2014-Dec-19 18:33N 34°55' W 076°40'6 5.8
2014-Dec-19 17:32N 35°01' W 076°40'8 7.6
2014-Dec-19 16:31N 35°05' W 076°32'3 0.3
2014-Dec-19 07:17N 35°07' W 076°30'10 8.1
2014-Dec-19 06:05N 35°01' W 076°39'5 6.0
2014-Dec-19 05:17N 34°56' W 076°39'4 5.9
2014-Dec-19 04:33N 34°52' W 076°42'6 5.5
2014-Dec-19 03:33N 34°47' W 076°41'4 3.5
2014-Dec-19 02:33N 34°43' W 076°42'3 2.5
2014-Dec-19 01:33N 34°46' W 076°40'6 5.5
2014-Dec-19 00:33N 34°51' W 076°41'5 4.9
2014-Dec-18 23:33N 34°56' W 076°39'5 5.2
2014-Dec-18 22:33N 35°01' W 076°39'8 7.1
2014-Dec-18 21:29N 35°05' W 076°32'9 0.7
2014-Dec-18 08:33N 35°14' W 076°35'8 6.7
2014-Dec-18 07:18N 35°06' W 076°31'7 8.6
2014-Dec-18 06:32N 35°02' W 076°37'6 6.3
2014-Dec-18 05:33N 34°56' W 076°39'6 6.0
2014-Dec-18 04:33N 34°50' W 076°41'6 6.1
2014-Dec-18 03:33N 34°44' W 076°41'0 0.1
2014-Dec-18 02:33N 34°44' W 076°41'5 4.9
2014-Dec-18 01:33N 34°49' W 076°41'5 5.1
2014-Dec-18 00:34N 34°54' W 076°40'5 5.4
2014-Dec-17 23:33N 34°60' W 076°41'7 7.0
2014-Dec-17 22:33N 35°04' W 076°34'8 0.6
2014-Dec-17 09:33N 34°59' W 076°42'5 5.4
2014-Dec-17 08:33N 34°53' W 076°41'6 6.4
2014-Dec-17 07:33N 34°47' W 076°41'4 4.0
2014-Dec-17 06:33N 34°43' W 076°41'1 0.5
2014-Dec-17 05:33N 34°43' W 076°42'0 0.1
2014-Dec-17 04:33N 34°43' W 076°42'0 0.0
2014-Dec-17 03:34N 34°43' W 076°42'0 0.0
2014-Dec-17 02:33N 34°43' W 076°42'0 0.0
2014-Dec-17 01:33N 34°43' W 076°42'1 0.6
2014-Dec-17 00:33N 34°43' W 076°41'3 3.3
2014-Dec-16 23:33N 34°46' W 076°41'7 6.6
2014-Dec-16 22:33N 34°53' W 076°42'6 5.7
2014-Dec-16 21:34N 34°58' W 076°42'8 7.7
2014-Dec-16 20:29N 35°04' W 076°34'6 6.7
2014-Dec-16 19:33N 35°10' W 076°32'13 1.1
2014-Dec-16 08:22N 35°22' W 076°37'6 5.6
2014-Dec-16 07:17N 35°16' W 076°36'10 5.5
2014-Dec-16 05:22N 35°06' W 076°32'12 5.9
2014-Dec-16 03:24N 34°56' W 076°39'4 5.0
2014-Dec-16 02:33N 34°52' W 076°42'5 4.6
2014-Dec-16 01:33N 34°48' W 076°41'5 4.8
2014-Dec-16 00:32N 34°43' W 076°42'0 0.4
2014-Dec-15 23:33N 34°43' W 076°42'0 0.3
2014-Dec-15 22:33N 34°43' W 076°41'1 0.6
2014-Dec-15 21:33N 34°43' W 076°42'1 0.6
2014-Dec-15 20:33N 34°43' W 076°41'0 0.0
2014-Dec-15 19:33N 34°43' W 076°41'1 0.6
2014-Dec-15 18:33N 34°43' W 076°42'1 0.6
2014-Dec-15 17:33N 34°43' W 076°42'7 6.9
2014-Dec-15 16:33N 34°50' W 076°41'7 7.1
2014-Dec-15 15:32N 34°57' W 076°40'6 6.3
2014-Dec-15 14:33N 35°02' W 076°36'8 8.4
2014-Dec-15 13:33N 35°09' W 076°30'14 0.8
2014-Dec-14 20:33N 34°58' W 076°41'6 5.6
2014-Dec-14 19:33N 34°53' W 076°42'7 6.8
2014-Dec-14 18:33N 34°46' W 076°41'3 2.6
2014-Dec-14 17:33N 34°43' W 076°42'0 0.0
2014-Dec-14 16:33N 34°43' W 076°42'0 0.0
2014-Dec-14 15:33N 34°43' W 076°42'0 0.0
2014-Dec-14 14:33N 34°43' W 076°42'0 0.0
2014-Dec-14 13:33N 34°43' W 076°42'0 0.0
2014-Dec-14 12:33N 34°43' W 076°42'1 0.6
2014-Dec-14 11:33N 34°43' W 076°41'6 5.8
2014-Dec-14 10:33N 34°49' W 076°41'7 6.5
2014-Dec-14 09:33N 34°55' W 076°40'7 6.2
2014-Dec-14 08:30N 35°01' W 076°38'8 8.1
2014-Dec-14 07:33N 35°07' W 076°31'12 0.8
2014-Dec-13 16:32N 34°58' W 076°41'5 5.0
2014-Dec-13 15:33N 34°53' W 076°41'5 5.3
2014-Dec-13 14:33N 34°48' W 076°41'5 5.0
2014-Dec-13 13:33N 34°43' W 076°41'1 0.6
2014-Dec-13 12:33N 34°43' W 076°42'0 0.0
2014-Dec-13 11:33N 34°43' W 076°42'0 0.0
2014-Dec-13 10:33N 34°43' W 076°42'0 0.0
2014-Dec-13 09:33N 34°43' W 076°42'0 0.0
2014-Dec-13 08:33N 34°43' W 076°42'1 0.6
2014-Dec-13 07:33N 34°43' W 076°41'1 1.4
2014-Dec-13 06:33N 34°44' W 076°41'7 6.8
2014-Dec-13 05:33N 34°51' W 076°41'6 6.2
2014-Dec-13 04:33N 34°57' W 076°40'  
Track history (hours):
 
Tides and Currents Weather Stations Pressure Air Temp Water Temp Dewpoint Dewpoint Depression Visibility Wind Speed Wind Dir Waves Ship Positions

Pamlico

Owner: PCS Phosphate, AURORA, NC. More information available from US FCC via Universal Licensing System and Coast Guard Vessel Documentation Center.

Last reported at 2014-Dec-23 00:31 UTC. Time now 2014-Dec-23 03:43 UTC.
Position N 35°05' W 076°32'.

Length 30 m; draft 3 m.

MMSI: 367361220.

Date/timePositionNaut miles runAvg speedWind from/ knotsBaromVisibWave heightAir tempDewpointWater temp
2014-Dec-23 00:31N 35°05' W 076°32'8 8.4
2014-Dec-22 23:33N 35°01' W 076°40'6 6.4
2014-Dec-22 22:33N 34°54' W 076°40'6 5.8
2014-Dec-22 21:33N 34°48' W 076°41'5 5.2
2014-Dec-22 20:33N 34°43' W 076°42'0 0.0
2014-Dec-22 19:33N 34°43' W 076°42'0 0.0
2014-Dec-22 18:33N 34°43' W 076°42'0 0.0
2014-Dec-22 17:33N 34°43' W 076°42'0 0.1
2014-Dec-22 16:33N 34°43' W 076°42'0 0.1
2014-Dec-22 15:33N 34°43' W 076°42'2 2.2
2014-Dec-22 14:33N 34°45' W 076°40'5 5.0
2014-Dec-22 13:33N 34°50' W 076°41'4 4.2
2014-Dec-22 12:33N 34°54' W 076°40'7 5.7
2014-Dec-22 11:24N 35°01' W 076°40'8 7.5
2014-Dec-22 10:19N 35°05' W 076°32'2 0.1
2014-Dec-21 17:31N 35°04' W 076°33'8 8.0
2014-Dec-21 16:32N 34°59' W 076°41'6 6.0
2014-Dec-21 15:33N 34°54' W 076°41'7 7.2
2014-Dec-21 14:33N 34°46' W 076°41'3 3.2
2014-Dec-21 13:33N 34°43' W 076°42'2 2.1
2014-Dec-21 12:33N 34°45' W 076°40'5 5.0
2014-Dec-21 11:33N 34°50' W 076°41'5 4.8
2014-Dec-21 10:33N 34°55' W 076°40'6 5.7
2014-Dec-21 09:33N 35°01' W 076°40'7 7.3
2014-Dec-21 08:33N 35°04' W 076°33'10 1.0
2014-Dec-20 22:30N 34°58' W 076°42'5 5.8
2014-Dec-20 21:33N 34°53' W 076°41'6 6.3
2014-Dec-20 20:33N 34°47' W 076°41'3 3.4
2014-Dec-20 19:33N 34°43' W 076°42'6 5.6
2014-Dec-20 18:33N 34°49' W 076°41'6 6.3
2014-Dec-20 17:33N 34°55' W 076°40'12 5.9
2014-Dec-20 15:32N 35°05' W 076°32'9 0.6
2014-Dec-20 00:14N 34°60' W 076°41'5 6.9
2014-Dec-19 23:33N 34°55' W 076°40'7 7.0
2014-Dec-19 22:33N 34°48' W 076°41'5 5.0
2014-Dec-19 21:33N 34°43' W 076°42'0 0.0
2014-Dec-19 20:33N 34°43' W 076°42'5 5.4
2014-Dec-19 19:33N 34°49' W 076°41'6 6.2
2014-Dec-19 18:33N 34°55' W 076°40'6 5.8
2014-Dec-19 17:32N 35°01' W 076°40'8 7.6
2014-Dec-19 16:31N 35°05' W 076°32'3 0.3
2014-Dec-19 07:17N 35°07' W 076°30'10 8.1
2014-Dec-19 06:05N 35°01' W 076°39'5 6.0
2014-Dec-19 05:17N 34°56' W 076°39'4 5.9
2014-Dec-19 04:33N 34°52' W 076°42'6 5.5
2014-Dec-19 03:33N 34°47' W 076°41'4 3.5
2014-Dec-19 02:33N 34°43' W 076°42'3 2.5
2014-Dec-19 01:33N 34°46' W 076°40'6 5.5
2014-Dec-19 00:33N 34°51' W 076°41'5 4.9
2014-Dec-18 23:33N 34°56' W 076°39'5 5.2
2014-Dec-18 22:33N 35°01' W 076°39'8 7.1
2014-Dec-18 21:29N 35°05' W 076°32'9 0.7
2014-Dec-18 08:33N 35°14' W 076°35'8 6.7
2014-Dec-18 07:18N 35°06' W 076°31'7 8.6
2014-Dec-18 06:32N 35°02' W 076°37'6 6.3
2014-Dec-18 05:33N 34°56' W 076°39'6 6.0
2014-Dec-18 04:33N 34°50' W 076°41'6 6.1
2014-Dec-18 03:33N 34°44' W 076°41'0 0.1
2014-Dec-18 02:33N 34°44' W 076°41'5 4.9
2014-Dec-18 01:33N 34°49' W 076°41'5 5.1
2014-Dec-18 00:34N 34°54' W 076°40'5 5.4
2014-Dec-17 23:33N 34°60' W 076°41'7 7.0
2014-Dec-17 22:33N 35°04' W 076°34'8 0.6
2014-Dec-17 09:33N 34°59' W 076°42'5 5.4
2014-Dec-17 08:33N 34°53' W 076°41'6 6.4
2014-Dec-17 07:33N 34°47' W 076°41'4 4.0
2014-Dec-17 06:33N 34°43' W 076°41'1 0.5
2014-Dec-17 05:33N 34°43' W 076°42'0 0.1
2014-Dec-17 04:33N 34°43' W 076°42'0 0.0
2014-Dec-17 03:34N 34°43' W 076°42'0 0.0
2014-Dec-17 02:33N 34°43' W 076°42'0 0.0
2014-Dec-17 01:33N 34°43' W 076°42'1 0.6
2014-Dec-17 00:33N 34°43' W 076°41'3 3.3
2014-Dec-16 23:33N 34°46' W 076°41'7 6.6
2014-Dec-16 22:33N 34°53' W 076°42'6 5.7
2014-Dec-16 21:34N 34°58' W 076°42'8 7.7
2014-Dec-16 20:29N 35°04' W 076°34'6 6.7
2014-Dec-16 19:33N 35°10' W 076°32'13 1.1
2014-Dec-16 08:22N 35°22' W 076°37'6 5.6
2014-Dec-16 07:17N 35°16' W 076°36'10 5.5
2014-Dec-16 05:22N 35°06' W 076°32'12 5.9
2014-Dec-16 03:24N 34°56' W 076°39'4 5.0
2014-Dec-16 02:33N 34°52' W 076°42'5 4.6
2014-Dec-16 01:33N 34°48' W 076°41'5 4.8
2014-Dec-16 00:32N 34°43' W 076°42'0 0.4
2014-Dec-15 23:33N 34°43' W 076°42'0 0.3
2014-Dec-15 22:33N 34°43' W 076°41'1 0.6
2014-Dec-15 21:33N 34°43' W 076°42'1 0.6
2014-Dec-15 20:33N 34°43' W 076°41'0 0.0
2014-Dec-15 19:33N 34°43' W 076°41'1 0.6
2014-Dec-15 18:33N 34°43' W 076°42'1 0.6
2014-Dec-15 17:33N 34°43' W 076°42'7 6.9
2014-Dec-15 16:33N 34°50' W 076°41'7 7.1
2014-Dec-15 15:32N 34°57' W 076°40'6 6.3
2014-Dec-15 14:33N 35°02' W 076°36'8 8.4
2014-Dec-15 13:33N 35°09' W 076°30'14 0.8
2014-Dec-14 20:33N 34°58' W 076°41'6 5.6
2014-Dec-14 19:33N 34°53' W 076°42'7 6.8
2014-Dec-14 18:33N 34°46' W 076°41'3 2.6
2014-Dec-14 17:33N 34°43' W 076°42'0 0.0
2014-Dec-14 16:33N 34°43' W 076°42'0 0.0
2014-Dec-14 15:33N 34°43' W 076°42'0 0.0
2014-Dec-14 14:33N 34°43' W 076°42'0 0.0
2014-Dec-14 13:33N 34°43' W 076°42'0 0.0
2014-Dec-14 12:33N 34°43' W 076°42'1 0.6
2014-Dec-14 11:33N 34°43' W 076°41'6 5.8
2014-Dec-14 10:33N 34°49' W 076°41'7 6.5
2014-Dec-14 09:33N 34°55' W 076°40'7 6.2
2014-Dec-14 08:30N 35°01' W 076°38'8 8.1
2014-Dec-14 07:33N 35°07' W 076°31'12 0.8
2014-Dec-13 16:32N 34°58' W 076°41'5 5.0
2014-Dec-13 15:33N 34°53' W 076°41'5 5.3
2014-Dec-13 14:33N 34°48' W 076°41'5 5.0
2014-Dec-13 13:33N 34°43' W 076°41'1 0.6
2014-Dec-13 12:33N 34°43' W 076°42'0 0.0
2014-Dec-13 11:33N 34°43' W 076°42'0 0.0
2014-Dec-13 10:33N 34°43' W 076°42'0 0.0
2014-Dec-13 09:33N 34°43' W 076°42'0 0.0
2014-Dec-13 08:33N 34°43' W 076°42'1 0.6
2014-Dec-13 07:33N 34°43' W 076°41'1 1.4
2014-Dec-13 06:33N 34°44' W 076°41'7 6.8
2014-Dec-13 05:33N 34°51' W 076°41'6 6.2
2014-Dec-13 04:33N 34°57' W 076°40'  

Dump ship's entire track history